createdAt,value
2023-01-03T00:00:43.133Z,1.30
2023-01-03T00:02:06.344Z,1.40
2023-01-03T00:03:09.471Z,1.30
2023-01-03T00:04:13.162Z,1.10
2023-01-03T00:05:16.264Z,1.40
2023-01-03T00:06:28.586Z,1.40
2023-01-03T00:07:34.914Z,1.20
2023-01-03T00:08:38.153Z,1.10
2023-01-03T00:09:41.258Z,1.00
2023-01-03T00:10:44.385Z,1.20
2023-01-03T00:12:08.308Z,1.10
2023-01-03T00:13:11.439Z,1.40
2023-01-03T00:14:18.021Z,1.60
2023-01-03T00:15:21.072Z,1.00
2023-01-03T00:16:24.422Z,1.30
2023-01-03T00:17:28.977Z,1.20
2023-01-03T00:18:32.356Z,1.20
2023-01-03T00:19:38.415Z,1.00
2023-01-03T00:20:41.556Z,1.30
2023-01-03T00:21:44.666Z,1.30
2023-01-03T00:22:48.603Z,1.10
2023-01-03T00:23:51.850Z,1.10
2023-01-03T00:24:54.939Z,1.50
2023-01-03T00:25:57.991Z,1.30
2023-01-03T00:27:01.098Z,1.60
2023-01-03T00:28:04.638Z,1.30
2023-01-03T00:29:09.782Z,1.30
2023-01-03T00:30:13.294Z,1.20
2023-01-03T00:31:16.296Z,1.20
2023-01-03T00:32:19.799Z,1.10
2023-01-03T00:33:22.739Z,1.10
2023-01-03T00:34:26.557Z,1.10
2023-01-03T00:35:29.620Z,1.70
2023-01-03T00:36:33.254Z,1.40
2023-01-03T00:37:36.224Z,1.20
2023-01-03T00:38:39.828Z,1.10
2023-01-03T00:39:44.136Z,1.10
2023-01-03T00:40:47.337Z,1.20
2023-01-03T00:41:50.306Z,1.30
2023-01-03T00:43:14.180Z,1.20
2023-01-03T00:44:17.910Z,1.30
2023-01-03T00:45:23.419Z,1.20
2023-01-03T00:46:28.698Z,1.20
2023-01-03T00:47:31.857Z,1.10
2023-01-03T00:48:34.952Z,1.10
2023-01-03T00:49:39.115Z,1.20
2023-01-03T00:50:42.082Z,1.30
2023-01-03T00:51:47.480Z,1.00
2023-01-03T00:52:50.465Z,1.10
2023-01-03T00:53:56.217Z,1.00
2023-01-03T00:54:59.207Z,1.10
2023-01-03T00:56:04.545Z,1.10
2023-01-03T00:57:07.599Z,1.00
2023-01-03T00:58:10.581Z,1.10
2023-01-03T00:59:15.628Z,1.10
2023-01-03T01:00:18.953Z,0.90
2023-01-03T01:01:25.028Z,1.20
2023-01-03T01:02:28.212Z,1.10
2023-01-03T01:03:31.524Z,1.00
2023-01-03T01:04:34.541Z,1.00
2023-01-03T01:05:37.559Z,1.00
2023-01-03T01:06:44.412Z,1.00
2023-01-03T01:07:48.790Z,1.10
2023-01-03T01:08:54.574Z,1.10
2023-01-03T01:09:57.960Z,1.00
2023-01-03T01:11:03.912Z,1.30
2023-01-03T01:12:07.525Z,1.10
2023-01-03T01:13:10.614Z,1.30
2023-01-03T01:14:20.556Z,1.20
2023-01-03T01:15:23.768Z,1.20
2023-01-03T01:16:29.856Z,1.40
2023-01-03T01:17:32.871Z,1.10
2023-01-03T01:18:37.575Z,1.10
2023-01-03T01:19:43.498Z,1.40
2023-01-03T01:20:46.561Z,1.00
2023-01-03T01:21:49.665Z,1.10
2023-01-03T01:22:52.732Z,1.20
2023-01-03T01:23:56.747Z,1.10
2023-01-03T01:24:59.959Z,1.00
2023-01-03T01:26:04.497Z,1.10
2023-01-03T01:27:07.780Z,1.10
2023-01-03T01:28:10.794Z,1.40
2023-01-03T01:29:15.667Z,1.20
2023-01-03T01:30:19.092Z,1.60
2023-01-03T01:31:26.669Z,2.30
2023-01-03T01:32:30.897Z,1.40
2023-01-03T01:33:37.967Z,1.20
2023-01-03T01:34:42.092Z,1.40
2023-01-03T01:35:45.110Z,1.40
2023-01-03T01:36:48.552Z,1.30
2023-01-03T01:37:51.528Z,1.40
2023-01-03T01:38:58.051Z,1.30
2023-01-03T01:40:01.108Z,1.20
2023-01-03T01:41:04.602Z,1.40
2023-01-03T01:42:33.377Z,1.70
2023-01-03T01:44:17.209Z,1.50
2023-01-03T01:45:20.304Z,1.60
2023-01-03T01:46:29.180Z,1.30
2023-01-03T01:47:46.779Z,1.50
2023-01-03T01:48:55.502Z,1.30
2023-01-03T01:50:22.883Z,1.40
2023-01-03T01:51:29.817Z,1.60
2023-01-03T01:52:36.627Z,1.70
2023-01-03T01:53:42.501Z,1.40
2023-01-03T01:54:46.332Z,1.20
2023-01-03T01:55:52.016Z,1.60
2023-01-03T01:56:55.789Z,1.50
2023-01-03T01:58:01.859Z,1.90
2023-01-03T01:59:05.271Z,2.40
2023-01-03T02:00:09.765Z,1.40
2023-01-03T02:01:21.089Z,1.50
2023-01-03T02:02:24.605Z,1.10
2023-01-03T02:03:28.039Z,1.60
2023-01-03T02:04:35.881Z,1.20
2023-01-03T02:05:44.900Z,1.40
2023-01-03T02:06:50.077Z,1.40
2023-01-03T02:07:54.242Z,1.50
2023-01-03T02:08:59.528Z,1.30
2023-01-03T02:10:02.856Z,1.20
2023-01-03T02:11:22.735Z,1.40
2023-01-03T02:13:05.743Z,2.00
2023-01-03T02:14:30.220Z,1.30
2023-01-03T02:16:03.723Z,1.40
2023-01-03T02:17:19.988Z,1.50
2023-01-03T02:18:32.700Z,1.80
2023-01-03T02:19:49.146Z,1.40
2023-01-03T02:21:29.840Z,1.50
2023-01-03T02:22:42.091Z,1.20
2023-01-03T02:24:10.197Z,1.40
2023-01-03T02:25:36.224Z,1.70
2023-01-03T02:27:01.280Z,1.50
2023-01-03T02:28:13.300Z,1.80
2023-01-03T02:30:00.997Z,1.40
2023-01-03T02:32:43.206Z,1.40
2023-01-03T02:33:54.403Z,1.40
2023-01-03T02:35:06.338Z,1.50
2023-01-03T02:36:27.263Z,1.40
2023-01-03T02:37:37.336Z,1.50
2023-01-03T02:39:04.656Z,1.70
2023-01-03T02:40:25.482Z,1.40
2023-01-03T02:41:38.060Z,1.40
2023-01-03T02:42:58.629Z,1.40
2023-01-03T02:44:25.822Z,1.30
2023-01-03T02:45:50.499Z,1.90
2023-01-03T02:47:01.779Z,2.00
2023-01-03T02:48:24.418Z,1.50
2023-01-03T02:49:38.467Z,1.70
2023-01-03T02:50:57.959Z,1.90
2023-01-03T02:52:28.898Z,1.60
2023-01-03T02:53:38.115Z,1.90
2023-01-03T02:54:46.375Z,1.80
2023-01-03T02:55:52.458Z,1.40
2023-01-03T02:57:04.746Z,1.70
2023-01-03T02:58:20.150Z,1.60
2023-01-03T02:59:33.119Z,1.40
2023-01-03T03:00:41.723Z,1.60
2023-01-03T03:01:50.987Z,1.60
2023-01-03T03:03:03.101Z,1.60
2023-01-03T03:04:08.108Z,1.40
2023-01-03T03:05:18.616Z,1.40
2023-01-03T03:06:29.668Z,1.70
2023-01-03T03:07:36.551Z,1.90
2023-01-03T03:08:39.837Z,1.40
2023-01-03T03:10:01.090Z,1.10
2023-01-03T03:11:22.367Z,1.40
2023-01-03T03:12:48.095Z,1.90
2023-01-03T03:14:00.368Z,1.70
2023-01-03T03:15:05.259Z,1.50
2023-01-03T03:16:40.345Z,1.60
2023-01-03T03:17:45.478Z,1.50
2023-01-03T03:19:00.547Z,1.70
2023-01-03T03:20:35.161Z,1.90
2023-01-03T03:21:56.681Z,1.80
2023-01-03T03:23:29.023Z,1.60
2023-01-03T03:24:49.964Z,2.00
2023-01-03T03:25:59.333Z,1.80
2023-01-03T03:27:27.181Z,1.70
2023-01-03T03:28:36.302Z,2.20
2023-01-03T03:29:39.793Z,1.80
2023-01-03T03:30:44.591Z,1.60
2023-01-03T03:31:50.545Z,1.70
2023-01-03T03:32:58.522Z,1.70
2023-01-03T03:34:24.423Z,1.60
2023-01-03T03:35:29.083Z,1.70
2023-01-03T03:36:35.004Z,1.80
2023-01-03T03:37:40.860Z,1.70
2023-01-03T03:38:45.298Z,1.40
2023-01-03T03:40:06.982Z,1.60
2023-01-03T03:41:41.001Z,1.30
2023-01-03T03:43:09.034Z,1.30
2023-01-03T03:44:49.711Z,1.60
2023-01-03T03:46:03.653Z,1.30
2023-01-03T03:47:15.883Z,1.50
2023-01-03T03:48:52.155Z,1.20
2023-01-03T03:50:00.025Z,1.30
2023-01-03T03:51:14.161Z,1.70
2023-01-03T03:52:21.375Z,1.30
2023-01-03T03:53:29.705Z,1.40
2023-01-03T03:54:35.965Z,1.70
2023-01-03T03:55:47.832Z,1.60
2023-01-03T03:56:58.929Z,1.00
2023-01-03T03:58:11.525Z,1.20
2023-01-03T03:59:18.364Z,1.40
2023-01-03T04:00:27.365Z,2.10
2023-01-03T04:01:31.765Z,1.40
2023-01-03T04:02:36.457Z,1.40
2023-01-03T04:03:42.270Z,1.50
2023-01-03T04:04:49.865Z,1.40
2023-01-03T04:06:08.758Z,1.30
2023-01-03T04:07:11.902Z,1.20
2023-01-03T04:08:14.889Z,1.20
2023-01-03T04:09:18.682Z,1.30
2023-01-03T04:10:23.628Z,1.10
2023-01-03T04:11:27.073Z,1.20
2023-01-03T04:12:30.071Z,1.00
2023-01-03T04:13:34.829Z,1.20
2023-01-03T04:14:37.769Z,1.30
2023-01-03T04:15:40.712Z,1.30
2023-01-03T04:16:43.673Z,1.40
2023-01-03T04:17:47.069Z,1.20
2023-01-03T04:18:50.012Z,1.00
2023-01-03T04:19:53.064Z,1.20
2023-01-03T04:20:57.539Z,1.30
2023-01-03T04:22:00.465Z,1.30
2023-01-03T04:23:03.619Z,1.20
2023-01-03T04:24:07.248Z,1.30
2023-01-03T04:25:10.290Z,1.10
2023-01-03T04:26:13.278Z,1.50
2023-01-03T04:27:16.342Z,1.20
2023-01-03T04:28:19.876Z,1.00
2023-01-03T04:29:22.795Z,1.50
2023-01-03T04:30:25.788Z,1.40
2023-01-03T04:31:28.941Z,1.30
2023-01-03T04:32:31.928Z,1.20
2023-01-03T04:33:34.906Z,1.20
2023-01-03T04:34:38.140Z,1.40
2023-01-03T04:35:41.238Z,1.20
2023-01-03T04:36:44.333Z,1.20
2023-01-03T04:37:47.294Z,1.50
2023-01-03T04:38:50.289Z,1.20
2023-01-03T04:39:53.365Z,1.50
2023-01-03T04:40:56.379Z,1.70
2023-01-03T04:42:01.486Z,1.20
2023-01-03T04:43:23.127Z,1.40
2023-01-03T04:44:26.087Z,1.30
2023-01-03T04:45:29.133Z,1.40
2023-01-03T04:46:35.061Z,1.70
2023-01-03T04:47:38.006Z,1.00
2023-01-03T04:48:41.079Z,1.20
2023-01-03T04:49:46.093Z,1.60
2023-01-03T04:50:57.372Z,1.10
2023-01-03T04:52:00.552Z,1.50
2023-01-03T04:53:03.638Z,1.50
2023-01-03T04:54:06.863Z,1.70
2023-01-03T04:55:10.120Z,1.30
2023-01-03T04:56:13.185Z,1.60
2023-01-03T04:57:16.524Z,1.40
2023-01-03T04:58:20.863Z,1.60
2023-01-03T04:59:23.960Z,2.60
2023-01-03T05:00:26.991Z,1.30
2023-01-03T05:01:30.225Z,1.30
2023-01-03T05:02:33.516Z,1.50
2023-01-03T05:03:38.098Z,1.50
2023-01-03T05:04:41.381Z,1.40
2023-01-03T05:05:44.413Z,1.60
2023-01-03T05:06:47.328Z,1.20
2023-01-03T05:07:50.448Z,1.50
2023-01-03T05:08:53.822Z,1.80
2023-01-03T05:09:56.842Z,1.40
2023-01-03T05:10:59.879Z,1.40
2023-01-03T05:12:02.990Z,1.50
2023-01-03T05:13:06.121Z,1.70
2023-01-03T05:14:14.137Z,1.70
2023-01-03T05:15:17.545Z,1.50
2023-01-03T05:16:20.825Z,1.10
2023-01-03T05:17:23.939Z,1.40
2023-01-03T05:18:27.092Z,1.40
2023-01-03T05:19:30.068Z,1.50
2023-01-03T05:20:54.593Z,1.40
2023-01-03T05:22:16.275Z,1.50
2023-01-03T05:23:37.844Z,1.40
2023-01-03T05:24:59.466Z,1.50
2023-01-03T05:26:06.179Z,1.60
2023-01-03T05:27:09.200Z,1.40
2023-01-03T05:28:17.036Z,1.70
2023-01-03T05:29:22.170Z,1.90
2023-01-03T05:30:25.745Z,1.50
2023-01-03T05:31:28.822Z,1.40
2023-01-03T05:32:31.838Z,1.80
2023-01-03T05:33:37.304Z,1.50
2023-01-03T05:34:40.788Z,1.50
2023-01-03T05:35:47.636Z,1.30
2023-01-03T05:36:50.573Z,1.80
2023-01-03T05:37:54.352Z,1.80
2023-01-03T05:38:57.467Z,1.60
2023-01-03T05:40:00.567Z,1.40
2023-01-03T05:41:03.874Z,2.00
2023-01-03T05:42:06.905Z,1.50
2023-01-03T05:43:09.832Z,1.90
2023-01-03T05:44:12.795Z,1.50
2023-01-03T05:45:16.613Z,1.50
2023-01-03T05:46:19.758Z,1.60
2023-01-03T05:47:22.761Z,1.90
2023-01-03T05:48:25.721Z,1.60
2023-01-03T05:49:28.917Z,2.20
2023-01-03T05:50:32.791Z,1.70
2023-01-03T05:51:35.878Z,1.80
2023-01-03T05:52:38.864Z,1.90
2023-01-03T05:53:41.823Z,1.60
2023-01-03T05:54:44.913Z,1.70
2023-01-03T05:55:47.841Z,2.40
2023-01-03T05:56:51.456Z,2.20
2023-01-03T05:57:54.581Z,1.80
2023-01-03T05:58:58.058Z,2.00
2023-01-03T06:00:01.020Z,1.80
2023-01-03T06:01:11.616Z,3.00
2023-01-03T06:02:14.818Z,1.80
2023-01-03T06:03:17.787Z,1.50
2023-01-03T06:04:20.839Z,2.10
2023-01-03T06:05:24.153Z,1.80
2023-01-03T06:06:27.245Z,1.50
2023-01-03T06:07:31.204Z,1.60
2023-01-03T06:08:34.189Z,1.50
2023-01-03T06:09:37.244Z,2.20
2023-01-03T06:10:40.965Z,1.80
2023-01-03T06:11:44.611Z,1.90
2023-01-03T06:12:47.628Z,1.90
2023-01-03T06:13:50.555Z,1.70
2023-01-03T06:14:53.621Z,1.90
2023-01-03T06:16:24.867Z,1.90
2023-01-03T06:17:46.529Z,2.40
2023-01-03T06:18:49.780Z,1.90
2023-01-03T06:19:52.755Z,1.90
2023-01-03T06:20:55.632Z,1.80
2023-01-03T06:21:58.621Z,1.60
2023-01-03T06:23:01.594Z,1.90
2023-01-03T06:24:05.389Z,1.70
2023-01-03T06:25:08.856Z,1.90
2023-01-03T06:26:11.952Z,1.90
2023-01-03T06:27:15.089Z,2.20
2023-01-03T06:28:18.110Z,1.70
2023-01-03T06:29:21.012Z,1.90
2023-01-03T06:30:24.175Z,1.70
2023-01-03T06:31:27.958Z,1.90
2023-01-03T06:32:31.166Z,1.90
2023-01-03T06:33:34.337Z,2.20
2023-01-03T06:34:37.979Z,1.70
2023-01-03T06:35:41.211Z,1.70
2023-01-03T06:36:44.601Z,2.00
2023-01-03T06:37:47.641Z,1.70
2023-01-03T06:38:50.677Z,1.80
2023-01-03T06:39:53.550Z,2.40
2023-01-03T06:40:56.650Z,2.20
2023-01-03T06:42:20.290Z,6.40
2023-01-03T06:43:23.294Z,2.10
2023-01-03T06:44:26.305Z,1.90
2023-01-03T06:45:47.928Z,2.40
2023-01-03T06:47:09.474Z,1.80
2023-01-03T06:48:30.836Z,1.90
2023-01-03T06:49:52.778Z,2.10
2023-01-03T06:51:14.640Z,1.70
2023-01-03T06:52:36.165Z,2.40
2023-01-03T06:53:42.090Z,1.50
2023-01-03T06:54:45.014Z,1.70
2023-01-03T06:55:56.152Z,1.70
2023-01-03T06:57:00.331Z,2.20
2023-01-03T06:58:03.705Z,1.90
2023-01-03T06:59:06.642Z,2.10
2023-01-03T07:00:10.534Z,2.10
2023-01-03T07:01:15.252Z,2.20
2023-01-03T07:02:18.372Z,2.10
2023-01-03T07:03:22.707Z,1.70
2023-01-03T07:04:26.103Z,2.10
2023-01-03T07:05:29.605Z,2.30
2023-01-03T07:06:32.603Z,2.00
2023-01-03T07:07:35.550Z,1.80
2023-01-03T07:08:44.157Z,1.70
2023-01-03T07:09:50.787Z,2.20
2023-01-03T07:10:54.691Z,2.70
2023-01-03T07:11:57.687Z,1.90
2023-01-03T07:13:19.860Z,1.80
2023-01-03T07:14:22.740Z,1.70
2023-01-03T07:15:25.681Z,1.80
2023-01-03T07:16:31.635Z,1.90
2023-01-03T07:17:34.785Z,1.70
2023-01-03T07:18:37.669Z,2.10
2023-01-03T07:19:40.642Z,2.20
2023-01-03T07:20:44.475Z,2.00
2023-01-03T07:21:47.436Z,2.20
2023-01-03T07:22:50.443Z,2.00
2023-01-03T07:23:57.939Z,2.00
2023-01-03T07:25:00.983Z,1.70
2023-01-03T07:26:04.185Z,2.00
2023-01-03T07:27:07.215Z,1.90
2023-01-03T07:28:12.329Z,1.90
2023-01-03T07:29:15.393Z,2.70
2023-01-03T07:30:18.573Z,2.20
2023-01-03T07:31:21.616Z,2.00
2023-01-03T07:32:24.913Z,2.00
2023-01-03T07:33:28.335Z,2.30
2023-01-03T07:34:31.344Z,1.70
2023-01-03T07:35:35.828Z,1.60
2023-01-03T07:36:40.157Z,2.30
2023-01-03T07:37:43.163Z,1.90
2023-01-03T07:38:47.051Z,2.20
2023-01-03T07:39:50.125Z,1.70
2023-01-03T07:40:56.809Z,2.10
2023-01-03T07:42:18.546Z,1.90
2023-01-03T07:43:36.972Z,1.70
2023-01-03T07:44:40.020Z,2.10
2023-01-03T07:45:44.363Z,1.90
2023-01-03T07:46:47.403Z,1.50
2023-01-03T07:47:50.445Z,1.80
2023-01-03T07:48:57.355Z,1.70
2023-01-03T07:50:00.262Z,2.10
2023-01-03T07:51:05.991Z,2.10
2023-01-03T07:52:09.160Z,1.80
2023-01-03T07:53:16.729Z,1.80
2023-01-03T07:54:20.071Z,1.90
2023-01-03T07:55:23.033Z,2.00
2023-01-03T07:56:25.968Z,2.00
2023-01-03T07:57:29.539Z,2.40
2023-01-03T07:58:33.119Z,1.90
2023-01-03T07:59:36.336Z,1.90
2023-01-03T08:00:40.034Z,2.30
2023-01-03T08:01:43.042Z,2.30
2023-01-03T08:02:46.360Z,1.90
2023-01-03T08:03:50.454Z,2.20
2023-01-03T08:04:53.676Z,2.00
2023-01-03T08:06:00.532Z,1.70
2023-01-03T08:07:03.553Z,2.20
2023-01-03T08:08:06.753Z,2.10
2023-01-03T08:09:27.996Z,2.00
2023-01-03T08:10:49.414Z,2.00
2023-01-03T08:12:11.039Z,1.80
2023-01-03T08:13:19.862Z,2.20
2023-01-03T08:14:26.120Z,1.70
2023-01-03T08:15:29.881Z,1.80
2023-01-03T08:16:32.845Z,1.70
2023-01-03T08:17:35.747Z,1.90
2023-01-03T08:18:40.056Z,2.10
2023-01-03T08:19:45.676Z,2.00
2023-01-03T08:20:49.836Z,1.70
2023-01-03T08:21:52.950Z,2.00
2023-01-03T08:22:56.002Z,1.90
2023-01-03T08:23:59.171Z,1.90
2023-01-03T08:25:02.392Z,2.00
2023-01-03T08:26:16.812Z,1.50
2023-01-03T08:27:19.801Z,2.10
2023-01-03T08:28:22.879Z,1.70
2023-01-03T08:29:25.872Z,1.60
2023-01-03T08:30:29.693Z,2.10
2023-01-03T08:31:36.019Z,1.80
2023-01-03T08:32:39.129Z,2.10
2023-01-03T08:33:49.650Z,1.90
2023-01-03T08:34:54.393Z,2.10
2023-01-03T08:36:03.448Z,2.80
2023-01-03T08:37:10.382Z,2.20
2023-01-03T08:38:18.759Z,1.90
2023-01-03T08:39:26.605Z,2.10
2023-01-03T08:40:35.405Z,1.90
2023-01-03T08:41:47.429Z,1.70
2023-01-03T08:42:50.439Z,2.20
2023-01-03T08:43:55.295Z,2.30
2023-01-03T08:45:04.785Z,1.90
2023-01-03T08:46:11.809Z,2.10
2023-01-03T08:47:16.124Z,2.00
2023-01-03T08:48:21.298Z,1.90
2023-01-03T08:49:24.902Z,2.00
2023-01-03T08:50:31.009Z,1.70
2023-01-03T08:51:34.113Z,1.80
2023-01-03T08:52:37.540Z,1.80
2023-01-03T08:53:40.885Z,1.90
2023-01-03T08:54:44.089Z,2.20
2023-01-03T08:55:47.023Z,1.60
2023-01-03T08:56:49.928Z,1.80
2023-01-03T08:57:53.154Z,1.90
2023-01-03T08:58:58.850Z,1.60
2023-01-03T09:00:02.247Z,1.70
2023-01-03T09:01:06.815Z,2.10
2023-01-03T09:02:10.051Z,2.40
2023-01-03T09:03:13.345Z,1.90
2023-01-03T09:04:16.898Z,2.20
2023-01-03T09:05:19.932Z,1.60
2023-01-03T09:06:22.864Z,2.10
2023-01-03T09:07:25.959Z,1.70
2023-01-03T09:08:33.359Z,1.60
2023-01-03T09:09:36.406Z,1.90
2023-01-03T09:10:47.163Z,1.90
2023-01-03T09:11:50.644Z,1.80
2023-01-03T09:12:53.623Z,1.60
2023-01-03T09:13:56.685Z,1.70
2023-01-03T09:14:59.661Z,1.70
2023-01-03T09:16:07.523Z,1.30
2023-01-03T09:17:10.700Z,1.60
2023-01-03T09:18:14.959Z,1.70
2023-01-03T09:19:17.925Z,1.90
2023-01-03T09:20:20.959Z,1.70
2023-01-03T09:21:24.242Z,2.00
2023-01-03T09:22:27.279Z,2.10
2023-01-03T09:23:31.363Z,1.90
2023-01-03T09:24:34.867Z,2.00
2023-01-03T09:25:37.964Z,1.90
2023-01-03T09:26:41.070Z,2.50
2023-01-03T09:27:47.990Z,1.50
2023-01-03T09:28:51.232Z,2.30
2023-01-03T09:29:54.266Z,2.30
2023-01-03T09:30:57.418Z,2.70
2023-01-03T09:32:03.410Z,1.90
2023-01-03T09:33:06.726Z,1.80
2023-01-03T09:34:09.827Z,1.80
2023-01-03T09:35:12.822Z,2.20
2023-01-03T09:36:15.814Z,2.50
2023-01-03T09:37:19.396Z,2.60
2023-01-03T09:38:25.471Z,2.00
2023-01-03T09:39:28.375Z,2.30
2023-01-03T09:40:36.077Z,2.70
2023-01-03T09:41:40.044Z,2.10
2023-01-03T09:43:02.232Z,1.70
2023-01-03T09:44:08.692Z,2.00
2023-01-03T09:45:17.258Z,2.20
2023-01-03T09:46:23.207Z,1.80
2023-01-03T09:47:26.486Z,1.70
2023-01-03T09:48:35.542Z,2.10
2023-01-03T09:49:57.760Z,2.10
2023-01-03T09:51:19.615Z,1.60
2023-01-03T09:52:46.583Z,1.80
2023-01-03T09:54:07.730Z,2.10
2023-01-03T09:55:47.809Z,2.10
2023-01-03T09:57:26.330Z,1.80
2023-01-03T09:58:50.604Z,1.50
2023-01-03T10:00:12.433Z,1.80
2023-01-03T10:01:37.241Z,2.00
2023-01-03T10:03:27.330Z,1.70
2023-01-03T10:04:45.890Z,1.60
2023-01-03T10:06:09.381Z,1.90
2023-01-03T10:07:35.757Z,2.00
2023-01-03T10:08:42.319Z,2.30
2023-01-03T10:10:07.968Z,2.30
2023-01-03T10:11:26.078Z,2.50
2023-01-03T10:12:45.713Z,1.90
2023-01-03T10:14:03.857Z,1.70
2023-01-03T10:15:24.201Z,2.10
2023-01-03T10:16:37.459Z,1.50
2023-01-03T10:18:15.980Z,2.00
2023-01-03T10:19:39.855Z,2.50
2023-01-03T10:20:45.769Z,2.00
2023-01-03T10:22:11.671Z,1.70
2023-01-03T10:23:15.138Z,1.40
2023-01-03T10:24:46.293Z,1.30
2023-01-03T10:25:49.358Z,2.00
2023-01-03T10:26:56.184Z,1.70
2023-01-03T10:28:18.698Z,2.10
2023-01-03T10:29:21.693Z,2.00
2023-01-03T10:30:42.515Z,1.80
2023-01-03T10:32:19.893Z,1.80
2023-01-03T10:33:40.219Z,2.50
2023-01-03T10:34:43.167Z,2.10
2023-01-03T10:35:46.189Z,2.10
2023-01-03T10:36:49.165Z,2.00
2023-01-03T10:37:54.301Z,2.10
2023-01-03T10:39:10.398Z,2.00
2023-01-03T10:40:14.691Z,1.90
2023-01-03T10:41:23.497Z,2.10
2023-01-03T10:42:30.737Z,1.80
2023-01-03T10:43:39.774Z,2.10
2023-01-03T10:44:57.653Z,2.10
2023-01-03T10:46:04.100Z,1.90
2023-01-03T10:47:16.400Z,2.20
2023-01-03T10:48:19.419Z,1.90
2023-01-03T10:49:27.902Z,1.80
2023-01-03T10:50:37.906Z,1.80
2023-01-03T10:51:48.067Z,2.10
2023-01-03T10:53:06.587Z,2.10
2023-01-03T10:54:24.920Z,1.70
2023-01-03T10:55:28.409Z,2.00
2023-01-03T10:56:35.090Z,2.00
2023-01-03T10:57:53.182Z,2.00
2023-01-03T10:59:28.768Z,2.10
2023-01-03T11:00:37.082Z,2.20
2023-01-03T11:01:40.270Z,2.30
2023-01-03T11:02:47.277Z,2.30
2023-01-03T11:04:13.769Z,2.30
2023-01-03T11:05:21.729Z,1.80
2023-01-03T11:06:24.682Z,2.60
2023-01-03T11:07:27.690Z,2.10
2023-01-03T11:08:48.985Z,2.30
2023-01-03T11:09:56.800Z,2.10
2023-01-03T11:11:00.893Z,2.10
2023-01-03T11:12:14.798Z,2.60
2023-01-03T11:13:38.468Z,2.30
2023-01-03T11:14:55.150Z,2.20
2023-01-03T11:16:01.960Z,2.20
2023-01-03T11:17:06.002Z,2.10
2023-01-03T11:18:20.743Z,1.70
2023-01-03T11:19:27.656Z,2.20
2023-01-03T11:20:47.600Z,2.00
2023-01-03T11:22:30.995Z,2.50
2023-01-03T11:23:58.100Z,2.00
2023-01-03T11:25:11.807Z,2.30
2023-01-03T11:26:26.884Z,2.60
2023-01-03T11:27:42.391Z,2.00
2023-01-03T11:29:08.934Z,2.40
2023-01-03T11:30:40.248Z,2.80
2023-01-03T11:31:58.286Z,1.70
2023-01-03T11:33:48.652Z,2.40
2023-01-03T11:35:23.425Z,2.50
2023-01-03T11:36:48.707Z,2.10
2023-01-03T11:38:03.958Z,2.00
2023-01-03T11:39:32.915Z,2.30
2023-01-03T11:41:00.608Z,2.00
2023-01-03T11:42:09.306Z,2.40
2023-01-03T11:43:37.015Z,2.70
2023-01-03T11:45:01.318Z,2.30
2023-01-03T11:46:29.356Z,2.20
2023-01-03T11:47:45.428Z,2.50
2023-01-03T11:48:57.360Z,2.50
2023-01-03T11:50:41.137Z,2.20
2023-01-03T11:52:14.250Z,2.50
2023-01-03T11:53:38.288Z,2.00
2023-01-03T11:55:17.355Z,2.20
2023-01-03T11:56:30.996Z,2.00
2023-01-03T11:58:08.745Z,2.20
2023-01-03T11:59:57.017Z,2.10
2023-01-03T12:01:17.535Z,2.80
2023-01-03T12:03:02.099Z,1.90
2023-01-03T12:04:26.843Z,2.40
2023-01-03T12:05:30.046Z,1.70
2023-01-03T12:06:51.486Z,2.70
2023-01-03T12:08:16.745Z,1.90
2023-01-03T12:09:30.138Z,1.90
2023-01-03T12:10:46.084Z,2.20
2023-01-03T12:11:51.611Z,2.40
2023-01-03T12:13:29.178Z,2.10
2023-01-03T12:15:14.986Z,2.20
2023-01-03T12:16:47.532Z,2.50
2023-01-03T12:17:59.615Z,2.30
2023-01-03T12:19:12.735Z,2.30
2023-01-03T12:20:26.730Z,2.30
2023-01-03T12:21:36.682Z,2.00
2023-01-03T12:22:44.528Z,2.30
2023-01-03T12:23:58.823Z,2.00
2023-01-03T12:25:26.470Z,2.50
2023-01-03T12:26:30.512Z,2.20
2023-01-03T12:27:42.281Z,2.10
2023-01-03T12:29:06.004Z,3.40
2023-01-03T12:30:35.502Z,3.20
2023-01-03T12:31:58.397Z,2.60
2023-01-03T12:33:26.165Z,2.20
2023-01-03T12:34:47.157Z,2.70
2023-01-03T12:36:17.857Z,2.20
2023-01-03T12:38:31.200Z,2.60
2023-01-03T12:39:40.038Z,2.00
2023-01-03T12:40:56.827Z,1.80
2023-01-03T12:42:04.779Z,2.30
2023-01-03T12:43:38.995Z,2.10
2023-01-03T12:44:47.241Z,2.00
2023-01-03T12:46:00.665Z,1.90
2023-01-03T12:47:06.258Z,2.20
2023-01-03T12:48:37.339Z,2.10
2023-01-03T12:49:55.715Z,2.30
2023-01-03T12:50:58.781Z,1.70
2023-01-03T12:52:02.048Z,1.80
2023-01-03T12:53:10.986Z,2.00
2023-01-03T12:54:42.571Z,2.00
2023-01-03T12:55:58.266Z,2.30
2023-01-03T12:57:34.105Z,2.20
2023-01-03T12:58:39.715Z,1.90
2023-01-03T12:59:57.742Z,1.90
2023-01-03T13:01:09.165Z,3.60
2023-01-03T13:02:48.950Z,2.20
2023-01-03T13:04:23.231Z,2.60
2023-01-03T13:05:38.812Z,2.00
2023-01-03T13:06:48.043Z,2.40
2023-01-03T13:08:09.925Z,2.20
2023-01-03T13:09:32.332Z,1.90
2023-01-03T13:10:38.151Z,2.00
2023-01-03T13:11:57.095Z,2.10
2023-01-03T13:13:01.921Z,1.90
2023-01-03T13:14:17.088Z,2.10
2023-01-03T13:15:36.674Z,2.20
2023-01-03T13:16:45.316Z,2.60
2023-01-03T13:17:49.703Z,2.20
2023-01-03T13:18:52.719Z,2.30
2023-01-03T13:20:17.780Z,2.20
2023-01-03T13:21:51.491Z,2.20
2023-01-03T13:22:56.914Z,2.40
2023-01-03T13:24:00.211Z,2.00
2023-01-03T13:25:41.137Z,2.10
2023-01-03T13:27:27.896Z,2.20
2023-01-03T13:28:40.439Z,2.10
2023-01-03T13:29:45.474Z,2.00
2023-01-03T13:30:48.818Z,2.40
2023-01-03T13:32:38.269Z,2.20
2023-01-03T13:33:53.990Z,2.10
2023-01-03T13:34:56.909Z,2.10
2023-01-03T13:36:01.760Z,2.40
2023-01-03T13:37:07.841Z,2.20
2023-01-03T13:38:27.421Z,2.30
2023-01-03T13:39:37.823Z,2.20
2023-01-03T13:42:21.017Z,2.40
2023-01-03T13:43:34.638Z,2.30
2023-01-03T13:44:40.816Z,2.10
2023-01-03T13:45:43.856Z,2.40
2023-01-03T13:46:48.186Z,2.40
2023-01-03T13:47:53.965Z,2.20
2023-01-03T13:49:03.185Z,2.30
2023-01-03T13:50:22.171Z,2.70
2023-01-03T13:51:38.930Z,2.00
2023-01-03T13:53:11.525Z,2.40
2023-01-03T13:54:17.386Z,2.30
2023-01-03T13:55:41.527Z,2.30
2023-01-03T13:56:44.472Z,2.20
2023-01-03T13:57:53.392Z,2.20
2023-01-03T13:59:10.359Z,2.40
2023-01-03T14:00:19.266Z,2.60
2023-01-03T14:01:36.257Z,2.30
2023-01-03T14:02:58.190Z,1.90
2023-01-03T14:04:35.925Z,2.30
2023-01-03T14:05:54.614Z,2.20
2023-01-03T14:07:34.681Z,3.30
2023-01-03T14:09:11.697Z,2.10
2023-01-03T14:10:51.993Z,2.70
2023-01-03T14:12:25.574Z,2.10
2023-01-03T14:13:41.678Z,2.10
2023-01-03T14:14:53.050Z,2.50
2023-01-03T14:16:21.050Z,1.70
2023-01-03T14:17:29.577Z,2.40
2023-01-03T14:18:34.851Z,2.00
2023-01-03T14:19:40.647Z,3.10
2023-01-03T14:20:47.781Z,2.90
2023-01-03T14:21:57.870Z,2.20
2023-01-03T14:23:31.946Z,1.90
2023-01-03T14:24:35.892Z,2.20
2023-01-03T14:25:41.296Z,2.30
2023-01-03T14:26:44.612Z,2.20
2023-01-03T14:27:47.783Z,2.50
2023-01-03T14:28:53.460Z,2.30
2023-01-03T14:29:56.613Z,2.20
2023-01-03T14:31:06.059Z,2.60
2023-01-03T14:32:37.445Z,2.40
2023-01-03T14:33:46.674Z,2.60
2023-01-03T14:34:49.992Z,2.10
2023-01-03T14:36:14.435Z,2.20
2023-01-03T14:37:21.333Z,2.50
2023-01-03T14:38:27.049Z,2.20
2023-01-03T14:40:35.235Z,2.70
2023-01-03T14:41:39.412Z,2.40
2023-01-03T14:42:45.813Z,2.30
2023-01-03T14:43:49.011Z,2.40
2023-01-03T14:44:59.120Z,2.90
2023-01-03T14:46:06.749Z,2.50
2023-01-03T14:47:17.606Z,2.30
2023-01-03T14:48:22.252Z,2.30
2023-01-03T14:49:36.807Z,2.10
2023-01-03T14:50:42.673Z,2.70
2023-01-03T14:51:48.417Z,2.60
2023-01-03T14:52:54.645Z,2.70
2023-01-03T14:53:59.639Z,2.50
2023-01-03T14:55:07.198Z,2.20
2023-01-03T14:56:10.724Z,2.10
2023-01-03T14:57:24.016Z,2.40
2023-01-03T14:58:34.442Z,2.80
2023-01-03T14:59:37.866Z,2.30
2023-01-03T15:00:41.392Z,2.50
2023-01-03T15:01:46.353Z,2.40
2023-01-03T15:02:50.545Z,2.30
2023-01-03T15:03:55.525Z,2.20
2023-01-03T15:05:01.813Z,2.70
2023-01-03T15:06:31.917Z,2.60
2023-01-03T15:07:43.539Z,2.50
2023-01-03T15:08:49.118Z,3.10
2023-01-03T15:10:02.545Z,2.70
2023-01-03T15:11:08.942Z,2.50
2023-01-03T15:12:13.872Z,2.40
2023-01-03T15:13:25.405Z,2.80
2023-01-03T15:14:34.520Z,2.30
2023-01-03T15:15:39.720Z,2.50
2023-01-03T15:16:42.922Z,2.60
2023-01-03T15:17:48.757Z,2.80
2023-01-03T15:18:57.939Z,3.60
2023-01-03T15:20:01.621Z,2.30
2023-01-03T15:21:06.133Z,2.50
2023-01-03T15:22:12.076Z,2.40
2023-01-03T15:23:48.263Z,2.60
2023-01-03T15:25:02.767Z,2.70
2023-01-03T15:26:19.857Z,2.60
2023-01-03T15:27:38.694Z,2.50
2023-01-03T15:28:50.846Z,2.30
2023-01-03T15:29:54.685Z,2.30
2023-01-03T15:31:15.334Z,3.10
2023-01-03T15:32:19.592Z,3.30
2023-01-03T15:33:33.180Z,2.50
2023-01-03T15:34:41.623Z,2.60
2023-01-03T15:35:44.761Z,2.60
2023-01-03T15:36:57.815Z,2.90
2023-01-03T15:38:02.887Z,2.60
2023-01-03T15:39:18.447Z,3.10
2023-01-03T15:40:22.454Z,2.80